createdAt,value
2022-11-24T00:01:16.464Z,28.70
2022-11-24T00:03:46.351Z,31.52
2022-11-24T00:06:15.875Z,23.80
2022-11-24T00:08:46.500Z,29.92
2022-11-24T00:11:20.083Z,31.25
2022-11-24T00:13:48.132Z,30.90
2022-11-24T00:16:25.165Z,24.85
2022-11-24T00:18:55.013Z,24.52
2022-11-24T00:21:23.497Z,33.58
2022-11-24T00:23:52.057Z,21.77
2022-11-24T00:26:24.780Z,25.20
2022-11-24T00:28:55.811Z,23.58
2022-11-24T00:31:26.370Z,24.65
2022-11-24T00:33:56.487Z,22.40
2022-11-24T00:36:26.409Z,21.02
2022-11-24T00:38:59.351Z,23.42
2022-11-24T00:41:28.738Z,26.95
2022-11-24T00:43:58.458Z,34.22
2022-11-24T00:46:27.089Z,29.40
2022-11-24T00:48:55.583Z,23.98
2022-11-24T00:51:30.209Z,27.40
2022-11-24T00:53:58.729Z,22.90
2022-11-24T00:56:28.005Z,23.20
2022-11-24T00:58:56.306Z,22.67
2022-11-24T01:01:27.112Z,24.17
2022-11-24T01:03:55.855Z,25.63
2022-11-24T01:06:25.871Z,24.50
2022-11-24T01:08:54.998Z,22.27
2022-11-24T01:11:28.596Z,30.45
2022-11-24T01:13:59.141Z,22.55
2022-11-24T01:16:33.478Z,29.55
2022-11-24T01:19:01.645Z,21.40
2022-11-24T01:21:29.606Z,24.85
2022-11-24T01:23:57.836Z,24.48
2022-11-24T01:26:26.003Z,23.00
2022-11-24T01:28:55.808Z,20.00
2022-11-24T01:31:24.634Z,28.35
2022-11-24T01:33:52.626Z,20.52
2022-11-24T01:36:20.880Z,20.10
2022-11-24T01:38:49.144Z,23.00
2022-11-24T01:41:25.068Z,21.55
2022-11-24T01:43:55.382Z,22.05
2022-11-24T01:46:34.231Z,25.83
2022-11-24T01:49:04.845Z,23.70
2022-11-24T01:51:37.086Z,29.75
2022-11-24T01:54:16.467Z,22.58
2022-11-24T01:56:48.203Z,27.50
2022-11-24T01:59:18.310Z,20.65
2022-11-24T02:01:48.605Z,22.05
2022-11-24T02:04:20.525Z,20.80
2022-11-24T02:06:48.873Z,15.48
2022-11-24T02:09:32.735Z,25.27
2022-11-24T02:12:02.086Z,23.23
2022-11-24T02:14:30.509Z,17.85
2022-11-24T02:16:58.226Z,24.42
2022-11-24T02:19:35.789Z,29.45
2022-11-24T02:22:04.434Z,17.15
2022-11-24T02:24:50.574Z,33.05
2022-11-24T02:27:20.005Z,26.20
2022-11-24T02:29:49.194Z,21.00
2022-11-24T02:32:18.343Z,31.27
2022-11-24T02:34:46.133Z,28.50
2022-11-24T02:37:13.753Z,19.77
2022-11-24T02:39:41.309Z,22.80
2022-11-24T02:42:12.908Z,22.80
2022-11-24T02:44:45.424Z,22.42
2022-11-24T02:47:13.166Z,18.75
2022-11-24T02:49:40.721Z,18.63
2022-11-24T02:52:08.862Z,43.15
2022-11-24T02:54:37.140Z,22.27
2022-11-24T02:57:05.256Z,13.27
2022-11-24T02:59:33.397Z,16.02
2022-11-24T03:02:01.325Z,21.40
2022-11-24T03:04:29.013Z,17.00
2022-11-24T03:06:57.655Z,19.60
2022-11-24T03:09:25.657Z,19.67
2022-11-24T03:11:53.544Z,17.52
2022-11-24T03:14:21.507Z,14.32
2022-11-24T03:16:49.472Z,22.40
2022-11-24T03:19:16.926Z,20.27
2022-11-24T03:21:44.425Z,18.20
2022-11-24T03:24:11.900Z,19.65
2022-11-24T03:26:40.017Z,16.65
2022-11-24T03:29:08.773Z,24.33
2022-11-24T03:31:36.874Z,22.48
2022-11-24T03:34:04.453Z,20.52
2022-11-24T03:36:31.956Z,19.40
2022-11-24T03:38:59.411Z,19.67
2022-11-24T03:41:26.901Z,22.83
2022-11-24T03:43:54.914Z,19.65
2022-11-24T03:46:22.594Z,20.40
2022-11-24T03:48:50.161Z,22.63
2022-11-24T03:51:18.285Z,15.88
2022-11-24T03:53:46.029Z,16.15
2022-11-24T03:56:14.424Z,17.50
2022-11-24T03:58:41.953Z,22.98
2022-11-24T04:01:09.643Z,15.93
2022-11-24T04:03:38.136Z,20.15
2022-11-24T04:06:06.064Z,21.80
2022-11-24T04:08:34.535Z,19.20
2022-11-24T04:11:02.487Z,20.00
2022-11-24T04:13:30.380Z,17.63
2022-11-24T04:15:57.912Z,21.17
2022-11-24T04:18:25.419Z,19.60
2022-11-24T04:20:53.092Z,18.70
2022-11-24T04:23:20.654Z,18.60
2022-11-24T04:25:48.806Z,20.55
2022-11-24T04:28:16.494Z,14.02
2022-11-24T04:30:45.136Z,22.70
2022-11-24T04:33:13.442Z,20.02
2022-11-24T04:35:41.017Z,14.90
2022-11-24T04:38:08.655Z,20.52
2022-11-24T04:40:36.925Z,15.32
2022-11-24T04:43:04.841Z,15.88
2022-11-24T04:45:32.844Z,12.65
2022-11-24T04:48:00.295Z,16.48
2022-11-24T04:50:27.801Z,14.52
2022-11-24T04:52:55.748Z,9.52
2022-11-24T04:55:23.741Z,14.85
2022-11-24T04:57:51.223Z,17.17
2022-11-24T05:00:19.540Z,14.68
2022-11-24T05:02:47.307Z,11.23
2022-11-24T05:05:15.190Z,12.85
2022-11-24T05:07:42.721Z,9.80
2022-11-24T05:10:28.818Z,13.43
2022-11-24T05:12:59.697Z,11.20
2022-11-24T05:15:27.789Z,15.88
2022-11-24T05:17:55.944Z,31.08
2022-11-24T05:20:24.019Z,13.57
2022-11-24T05:22:51.876Z,14.65
2022-11-24T05:25:19.552Z,11.70
2022-11-24T05:27:47.088Z,12.00
2022-11-24T05:30:14.919Z,15.73
2022-11-24T05:32:42.701Z,16.52
2022-11-24T05:35:10.616Z,16.35
2022-11-24T05:37:38.770Z,14.25
2022-11-24T05:40:07.459Z,11.65
2022-11-24T05:42:46.653Z,22.52
2022-11-24T05:45:20.254Z,14.23
2022-11-24T05:47:50.070Z,19.63
2022-11-24T05:50:20.003Z,15.60
2022-11-24T05:52:48.740Z,12.90
2022-11-24T05:55:16.416Z,10.85
2022-11-24T05:57:45.347Z,17.25
2022-11-24T06:00:13.922Z,26.52
2022-11-24T06:02:42.192Z,16.30
2022-11-24T06:05:10.241Z,19.52
2022-11-24T06:07:37.767Z,28.52
2022-11-24T06:10:05.693Z,18.05
2022-11-24T06:12:33.611Z,28.05
2022-11-24T06:15:01.232Z,18.90
2022-11-24T06:17:29.304Z,29.85
2022-11-24T06:19:56.917Z,18.98
2022-11-24T06:22:24.564Z,23.92
2022-11-24T06:24:52.252Z,27.75
2022-11-24T06:27:19.724Z,20.05
2022-11-24T06:29:47.726Z,19.98
2022-11-24T06:32:15.330Z,17.38
2022-11-24T06:34:44.041Z,26.48
2022-11-24T06:37:11.568Z,19.73
2022-11-24T06:39:39.072Z,15.57
2022-11-24T06:42:06.664Z,16.00
2022-11-24T06:44:34.442Z,17.58
2022-11-24T06:47:02.234Z,20.35
2022-11-24T06:49:30.228Z,19.65
2022-11-24T06:51:57.690Z,21.98
2022-11-24T06:54:25.571Z,24.85
2022-11-24T06:56:58.040Z,15.48
2022-11-24T06:59:26.602Z,16.48
2022-11-24T07:01:54.150Z,21.25
2022-11-24T07:04:22.107Z,16.63
2022-11-24T07:06:49.945Z,19.00
2022-11-24T07:09:17.868Z,18.80
2022-11-24T07:11:45.992Z,20.65
2022-11-24T07:14:13.606Z,24.85
2022-11-24T07:16:41.221Z,16.20
2022-11-24T07:19:10.021Z,24.55
2022-11-24T07:21:37.992Z,19.60
2022-11-24T07:24:06.385Z,21.38
2022-11-24T07:26:37.475Z,22.85
2022-11-24T07:29:05.718Z,26.73
2022-11-24T07:31:33.471Z,21.83
2022-11-24T07:34:01.572Z,27.70
2022-11-24T07:36:29.082Z,20.65
2022-11-24T07:38:56.673Z,36.63
2022-11-24T07:41:24.228Z,23.52
2022-11-24T07:43:51.973Z,24.30
2022-11-24T07:46:20.499Z,25.27
2022-11-24T07:48:48.371Z,26.52
2022-11-24T07:51:16.468Z,19.92
2022-11-24T07:53:45.716Z,24.50
2022-11-24T07:56:13.758Z,30.27
2022-11-24T07:58:41.530Z,22.25
2022-11-24T08:01:18.809Z,23.85
2022-11-24T08:03:46.949Z,24.90
2022-11-24T08:06:25.445Z,17.77
2022-11-24T08:08:55.972Z,31.40
2022-11-24T08:11:24.054Z,26.08
2022-11-24T08:13:51.918Z,20.38
2022-11-24T08:16:20.980Z,19.55
2022-11-24T08:18:56.467Z,24.45
2022-11-24T08:21:24.611Z,40.42
2022-11-24T08:23:58.404Z,37.45
2022-11-24T08:26:26.342Z,29.95
2022-11-24T08:28:56.515Z,33.13
2022-11-24T08:31:27.580Z,33.85
2022-11-24T08:33:56.122Z,35.38
2022-11-24T08:36:23.674Z,44.17
2022-11-24T08:38:55.873Z,38.20
2022-11-24T08:41:24.127Z,36.85
2022-11-24T08:43:52.128Z,29.83
2022-11-24T08:46:19.992Z,24.80
2022-11-24T08:48:50.234Z,19.15
2022-11-24T08:51:20.928Z,20.77
2022-11-24T08:53:48.893Z,32.55
2022-11-24T08:56:16.412Z,27.90
2022-11-24T08:58:44.487Z,30.10
2022-11-24T09:01:15.350Z,28.58
2022-11-24T09:03:50.456Z,26.92
2022-11-24T09:06:25.949Z,26.48
2022-11-24T09:08:54.564Z,33.53
2022-11-24T09:11:23.920Z,21.42
2022-11-24T09:13:51.936Z,24.63
2022-11-24T09:16:22.656Z,24.90
2022-11-24T09:18:58.858Z,22.33
2022-11-24T09:21:27.717Z,20.70
2022-11-24T09:23:55.737Z,19.92
2022-11-24T09:26:28.961Z,18.00
2022-11-24T09:28:58.174Z,22.55
2022-11-24T09:31:28.237Z,21.50
2022-11-24T09:33:56.391Z,22.35
2022-11-24T09:36:24.729Z,18.02
2022-11-24T09:38:53.275Z,19.48
2022-11-24T09:41:36.542Z,27.70
2022-11-24T09:44:12.761Z,26.38
2022-11-24T09:46:59.845Z,20.60
2022-11-24T09:49:35.203Z,24.23
2022-11-24T09:52:09.921Z,22.40
2022-11-24T09:54:41.653Z,22.67
2022-11-24T09:57:12.856Z,27.35
2022-11-24T09:59:42.317Z,23.13
2022-11-24T10:02:13.539Z,25.67
2022-11-24T10:04:46.957Z,27.15
2022-11-24T10:07:38.252Z,23.40
2022-11-24T10:10:28.488Z,26.13
2022-11-24T10:13:28.347Z,24.80
2022-11-24T10:16:17.866Z,26.23
2022-11-24T10:19:00.978Z,30.88
2022-11-24T10:21:28.537Z,25.85
2022-11-24T10:24:00.087Z,29.13
2022-11-24T10:26:36.850Z,31.35
2022-11-24T10:29:20.775Z,32.05
2022-11-24T10:31:51.469Z,29.08
2022-11-24T10:34:28.851Z,28.98
2022-11-24T10:37:26.477Z,24.48
2022-11-24T10:40:04.166Z,25.23
2022-11-24T10:42:40.448Z,25.23
2022-11-24T10:45:17.884Z,31.83
2022-11-24T10:47:46.991Z,32.60
2022-11-24T10:50:21.862Z,29.42
2022-11-24T10:53:08.175Z,29.45
2022-11-24T10:56:06.014Z,27.58
2022-11-24T10:58:39.321Z,29.23
2022-11-24T11:01:12.917Z,31.25
2022-11-24T11:06:23.675Z,33.88
2022-11-24T11:09:17.809Z,31.17
2022-11-24T11:11:49.238Z,29.75
2022-11-24T11:14:32.985Z,28.45
2022-11-24T11:17:00.557Z,33.30
2022-11-24T11:20:00.089Z,30.52
2022-11-24T11:22:32.929Z,26.60
2022-11-24T11:25:07.320Z,34.10
2022-11-24T11:27:35.388Z,32.90
2022-11-24T11:38:40.766Z,32.22
2022-11-24T11:41:19.525Z,37.60
2022-11-24T11:43:51.204Z,31.10
2022-11-24T11:46:18.973Z,27.13
2022-11-24T11:48:48.115Z,27.88
2022-11-24T11:51:54.585Z,38.58
2022-11-24T11:54:34.719Z,32.63
2022-11-24T11:57:17.439Z,32.22
2022-11-24T11:59:51.316Z,36.65
2022-11-24T12:02:32.231Z,30.73
2022-11-24T12:05:06.811Z,31.85
2022-11-24T12:07:37.417Z,34.47
2022-11-24T12:10:14.443Z,29.00
2022-11-24T12:13:06.730Z,36.70
2022-11-24T12:15:43.786Z,27.20
2022-11-24T12:18:57.118Z,33.22
2022-11-24T12:21:34.398Z,35.67
2022-11-24T12:24:05.386Z,32.70
2022-11-24T12:26:56.375Z,29.90
2022-11-24T12:29:36.116Z,36.15
2022-11-24T12:32:35.065Z,33.08
2022-11-24T12:35:16.769Z,30.42
2022-11-24T12:38:12.392Z,26.75
2022-11-24T12:44:04.512Z,31.23
2022-11-24T12:47:13.606Z,30.13
2022-11-24T12:50:06.701Z,36.33
2022-11-24T12:53:00.949Z,29.52
2022-11-24T12:58:00.399Z,30.60
2022-11-24T13:00:34.577Z,29.23
2022-11-24T13:03:50.659Z,28.50
2022-11-24T13:06:45.855Z,33.20
2022-11-24T13:09:16.889Z,23.75
2022-11-24T13:12:06.759Z,26.40
2022-11-24T13:14:38.008Z,28.63
2022-11-24T13:20:40.802Z,24.45
2022-11-24T13:23:25.506Z,24.48
2022-11-24T13:26:30.323Z,24.67
2022-11-24T13:29:23.898Z,22.65
2022-11-24T13:31:56.702Z,22.95
2022-11-24T13:34:39.604Z,23.88
2022-11-24T13:37:40.834Z,21.10
2022-11-24T13:40:12.197Z,22.60
2022-11-24T13:42:55.340Z,21.05
2022-11-24T13:45:38.824Z,22.80
2022-11-24T13:48:22.475Z,22.17
2022-11-24T13:50:51.919Z,19.63
2022-11-24T13:53:32.234Z,23.33
2022-11-24T13:56:07.765Z,20.55
2022-11-24T13:58:38.749Z,17.25
2022-11-24T14:01:13.345Z,18.42
2022-11-24T14:04:28.095Z,18.10
2022-11-24T14:06:45.087Z,24.48
2022-11-24T14:09:21.960Z,21.35
2022-11-24T14:12:07.460Z,15.13
2022-11-24T14:14:35.563Z,15.45
2022-11-24T14:17:13.491Z,18.38
2022-11-24T14:19:42.480Z,14.05
2022-11-24T14:22:20.925Z,19.58
2022-11-24T14:25:00.687Z,22.08
2022-11-24T14:27:40.119Z,20.23
2022-11-24T14:30:08.203Z,21.58
2022-11-24T14:32:37.888Z,17.88
2022-11-24T14:35:27.238Z,18.30
2022-11-24T14:37:56.079Z,18.73
2022-11-24T14:40:45.155Z,18.48
2022-11-24T14:43:20.750Z,19.73
2022-11-24T14:45:55.221Z,18.85
2022-11-24T14:48:33.227Z,19.02
2022-11-24T14:51:14.862Z,21.95
2022-11-24T14:53:49.027Z,19.27
2022-11-24T14:56:40.509Z,25.85
2022-11-24T14:59:25.640Z,22.13
2022-11-24T15:01:53.940Z,23.10
2022-11-24T15:07:27.232Z,21.48
2022-11-24T15:10:00.796Z,24.15
2022-11-24T15:12:42.712Z,25.15
2022-11-24T15:15:13.911Z,28.25
2022-11-24T15:17:50.850Z,25.17
2022-11-24T15:20:27.138Z,34.17
2022-11-24T15:23:16.100Z,31.38
2022-11-24T15:25:44.174Z,27.17
2022-11-24T15:28:12.162Z,26.30
2022-11-24T15:30:40.248Z,27.00
2022-11-24T15:33:17.345Z,28.60
2022-11-24T15:35:45.928Z,26.40
2022-11-24T15:38:14.057Z,28.20
2022-11-24T15:40:44.518Z,23.92
2022-11-24T15:43:38.718Z,31.63
2022-11-24T15:46:07.758Z,25.02
2022-11-24T15:48:35.872Z,37.58
2022-11-24T15:51:07.044Z,40.47
2022-11-24T15:53:48.165Z,29.98
2022-11-24T15:56:23.595Z,28.63
2022-11-24T15:58:51.917Z,32.28
2022-11-24T16:01:21.774Z,34.35
2022-11-24T16:03:49.663Z,39.05
2022-11-24T16:06:24.719Z,35.33
2022-11-24T16:08:54.293Z,36.47
2022-11-24T16:11:23.432Z,35.70
2022-11-24T16:13:53.955Z,33.38
2022-11-24T16:16:23.470Z,35.92
2022-11-24T16:18:51.557Z,32.08
2022-11-24T16:21:19.199Z,32.33
2022-11-24T16:23:47.833Z,31.48
2022-11-24T16:26:15.386Z,34.75
2022-11-24T16:28:45.790Z,33.08
2022-11-24T16:31:16.260Z,42.80
2022-11-24T16:33:45.354Z,42.92
2022-11-24T16:36:14.104Z,47.17
2022-11-24T16:38:42.150Z,47.53
2022-11-24T16:41:10.693Z,33.97
2022-11-24T16:43:38.856Z,35.58
2022-11-24T16:46:17.356Z,43.33
2022-11-24T16:48:46.499Z,50.00
2022-11-24T16:51:35.730Z,44.83
2022-11-24T16:54:03.781Z,46.22
2022-11-24T16:56:31.929Z,48.40
2022-11-24T16:58:59.814Z,37.45
2022-11-24T17:01:27.847Z,52.50
2022-11-24T17:03:56.149Z,52.63
2022-11-24T17:06:23.843Z,41.15
2022-11-24T17:08:51.381Z,47.45
2022-11-24T17:11:22.343Z,43.05
2022-11-24T17:13:50.639Z,40.33
2022-11-24T17:16:23.311Z,43.70
2022-11-24T17:18:51.128Z,53.83
2022-11-24T17:21:24.332Z,51.50
2022-11-24T17:23:56.637Z,56.88
2022-11-24T17:26:25.374Z,58.00
2022-11-24T17:28:54.072Z,46.47
2022-11-24T17:31:28.816Z,52.50
2022-11-24T17:33:58.415Z,53.60
2022-11-24T17:36:27.907Z,50.92
2022-11-24T17:38:55.924Z,72.97
2022-11-24T17:41:23.912Z,68.63
2022-11-24T17:43:55.542Z,71.75
2022-11-24T17:46:27.888Z,63.88
2022-11-24T17:48:56.376Z,59.03
2022-11-24T17:51:25.907Z,74.07
2022-11-24T17:53:54.765Z,59.63
2022-11-24T17:56:28.262Z,82.20
2022-11-24T17:58:58.566Z,93.68
2022-11-24T18:01:30.242Z,85.65
2022-11-24T18:03:58.376Z,78.97
2022-11-24T18:06:28.742Z,81.28
2022-11-24T18:08:57.789Z,74.55
2022-11-24T18:11:32.067Z,76.93
2022-11-24T18:14:02.667Z,67.88
2022-11-24T18:16:35.317Z,64.45
2022-11-24T18:19:09.215Z,71.32
2022-11-24T18:21:43.791Z,64.10
2022-11-24T18:24:13.052Z,73.50
2022-11-24T18:26:42.163Z,71.93
2022-11-24T18:29:11.578Z,71.65
2022-11-24T18:31:40.289Z,69.47
2022-11-24T18:34:08.015Z,78.43
2022-11-24T18:36:35.962Z,81.68
2022-11-24T18:39:06.047Z,89.13
2022-11-24T18:41:34.006Z,84.10
2022-11-24T18:44:03.209Z,78.70
2022-11-24T18:46:30.919Z,70.20
2022-11-24T18:48:59.392Z,71.28
2022-11-24T18:51:27.257Z,75.50
2022-11-24T18:53:54.899Z,68.15
2022-11-24T18:56:22.499Z,72.40
2022-11-24T18:58:56.554Z,68.10
2022-11-24T19:01:27.001Z,76.93
2022-11-24T19:03:57.093Z,64.07
2022-11-24T19:06:29.076Z,70.90
2022-11-24T19:08:56.876Z,60.42
2022-11-24T19:11:28.205Z,66.40
2022-11-24T19:13:56.936Z,58.08
2022-11-24T19:16:25.278Z,62.38
2022-11-24T19:18:57.271Z,70.03
2022-11-24T19:21:24.901Z,64.55
2022-11-24T19:23:53.143Z,67.00
2022-11-24T19:26:20.995Z,68.63
2022-11-24T19:28:49.155Z,62.97
2022-11-24T19:31:18.862Z,63.80
2022-11-24T19:33:47.030Z,89.35
2022-11-24T19:36:17.165Z,87.53
2022-11-24T19:38:53.759Z,85.35
2022-11-24T19:41:24.119Z,89.47
2022-11-24T19:43:55.057Z,84.05
2022-11-24T19:46:27.200Z,84.50
2022-11-24T19:48:59.750Z,87.93
2022-11-24T19:51:33.181Z,85.90
2022-11-24T19:54:01.750Z,86.50
2022-11-24T19:56:34.088Z,83.57
2022-11-24T19:59:04.157Z,81.82
2022-11-24T20:01:39.880Z,88.57
2022-11-24T20:04:13.594Z,85.33
2022-11-24T20:06:44.281Z,82.32
2022-11-24T20:09:17.915Z,77.47
2022-11-24T20:11:46.354Z,71.22
2022-11-24T20:14:15.726Z,65.35
2022-11-24T20:16:45.624Z,67.22
2022-11-24T20:19:15.845Z,61.72
2022-11-24T20:21:47.725Z,60.20
2022-11-24T20:24:21.585Z,57.78
2022-11-24T20:26:52.154Z,62.72
2022-11-24T20:29:20.625Z,61.28
2022-11-24T20:31:51.380Z,67.75
2022-11-24T20:34:20.334Z,56.13
2022-11-24T20:36:48.382Z,56.90
2022-11-24T20:39:23.883Z,67.15
2022-11-24T20:41:52.414Z,55.78
2022-11-24T20:44:22.135Z,55.08
2022-11-24T20:46:50.299Z,54.15
2022-11-24T20:49:22.232Z,65.25
2022-11-24T20:51:54.321Z,66.65
2022-11-24T20:54:22.221Z,59.85
2022-11-24T20:56:50.226Z,56.97
2022-11-24T20:59:21.616Z,61.38
2022-11-24T21:01:50.205Z,70.47
2022-11-24T21:04:21.132Z,50.70
2022-11-24T21:06:49.892Z,49.38
2022-11-24T21:09:18.375Z,71.72
2022-11-24T21:11:46.287Z,60.17
2022-11-24T21:14:14.851Z,69.90
2022-11-24T21:16:42.922Z,68.80
2022-11-24T21:19:13.896Z,70.22
2022-11-24T21:21:42.924Z,64.88
2022-11-24T21:24:14.827Z,64.20
2022-11-24T21:26:47.397Z,61.25
2022-11-24T21:29:22.285Z,60.35
2022-11-24T21:31:50.461Z,60.55
2022-11-24T21:34:19.493Z,68.85
2022-11-24T21:36:47.460Z,72.93
2022-11-24T21:39:16.414Z,53.65
2022-11-24T21:41:44.336Z,56.17
2022-11-24T21:44:13.726Z,49.45
2022-11-24T21:46:48.193Z,51.28
2022-11-24T21:49:18.710Z,45.40
2022-11-24T21:51:47.111Z,51.47
2022-11-24T21:54:15.286Z,56.75
2022-11-24T21:56:42.858Z,49.72
2022-11-24T21:59:10.699Z,51.20
2022-11-24T22:01:38.335Z,50.97
2022-11-24T22:04:06.399Z,52.72
2022-11-24T22:06:34.010Z,71.38
2022-11-24T22:09:01.690Z,56.60
2022-11-24T22:11:29.181Z,61.53
2022-11-24T22:13:56.654Z,57.58
2022-11-24T22:16:25.997Z,54.05
2022-11-24T22:18:54.028Z,49.78
2022-11-24T22:21:24.337Z,64.70
2022-11-24T22:23:52.819Z,55.95
2022-11-24T22:26:23.073Z,44.60
2022-11-24T22:28:51.848Z,51.63
2022-11-24T22:31:21.931Z,47.85
2022-11-24T22:33:50.356Z,52.88
2022-11-24T22:36:20.931Z,48.42
2022-11-24T22:38:53.945Z,48.00
2022-11-24T22:41:22.060Z,42.30
2022-11-24T22:43:50.739Z,39.17
2022-11-24T22:46:24.266Z,48.22
2022-11-24T22:48:53.149Z,45.17
2022-11-24T22:51:25.316Z,42.70
2022-11-24T22:53:55.587Z,41.38
2022-11-24T22:56:24.151Z,47.53
2022-11-24T22:58:51.752Z,42.60
2022-11-24T23:01:22.094Z,40.42
2022-11-24T23:03:53.774Z,43.42
2022-11-24T23:06:26.607Z,49.00
2022-11-24T23:08:55.822Z,50.15
2022-11-24T23:11:36.241Z,44.83
2022-11-24T23:14:07.734Z,41.08
2022-11-24T23:16:36.282Z,53.78
2022-11-24T23:19:04.265Z,46.55
2022-11-24T23:21:34.702Z,40.78
2022-11-24T23:24:03.594Z,46.88
2022-11-24T23:26:34.431Z,44.00
2022-11-24T23:29:02.458Z,45.33
2022-11-24T23:31:30.865Z,39.70
2022-11-24T23:34:00.883Z,48.75
2022-11-24T23:36:30.131Z,46.45
2022-11-24T23:39:03.006Z,48.22
2022-11-24T23:41:31.787Z,52.60
2022-11-24T23:44:00.244Z,46.25
2022-11-24T23:46:28.816Z,52.38
2022-11-24T23:48:56.893Z,48.58
2022-11-24T23:51:32.176Z,54.13
2022-11-24T23:54:00.699Z,41.10
2022-11-24T23:56:33.506Z,54.88
2022-11-24T23:59:03.212Z,47.95
